Karos, South Africa
Current Conditions -  °F | °C
As of 10:00 AM on Saturday 25 Oct 2014 (Local Time) from FAUP Reporting Station
Clear Clear  
Wind Chill: 86°   Ceiling: Unl
Heat Index: 86°   Visibility: 6mi
Dew Point: 43°   Wind: 7mph
Humidity: 22%   Direction: 130°SE
Pressure: 29.97"   Gusts: NA
Location:  28.42°S, 21.57°E
Report Text: FAUP 250800Z 13006KT CAVOK 30/06 Q1015 NOSIG
Loading
Personal Weather Stations






























Interactive Weather Map
Tropical Storm Tracking
New forecast layout! Learn more

10-Day Weather Forecast

Advertisements
Track Severe Weather on mobile